Terminal Aerodrome Forecast
Issued by NWS

Home | Current Version | Previous Version | Text Only | Print | Product List | Glossary On
Versions: 1 2 3 4 5 6 7 8 9 10 11 12 13 14 15
000
FTUS42 KJAX 101700
TAFCRG
TAF
KCRG 101729Z 1018/1118 15008KT P6SM VCTS BKN040CB BKN250
      TEMPO 1019/1022 3SM TSRA OVC030CB
     FM110300 20003KT P6SM BKN250
     FM111500 17005KT P6SM SCT035 BKN250=

USA.gov is the U.S. government's official web portal to all federal, state and local government web resources and services.